createdAt,value
2023-01-26T00:01:53.664Z,63.88
2023-01-26T00:04:21.767Z,64.20
2023-01-26T00:06:49.822Z,64.33
2023-01-26T00:09:17.872Z,64.92
2023-01-26T00:11:45.906Z,64.50
2023-01-26T00:14:13.979Z,64.29
2023-01-26T00:16:43.518Z,65.06
2023-01-26T00:19:11.765Z,64.84
2023-01-26T00:21:40.094Z,64.87
2023-01-26T00:24:08.904Z,64.90
2023-01-26T00:26:37.110Z,64.70
2023-01-26T00:29:05.414Z,64.69
2023-01-26T00:31:33.655Z,64.64
2023-01-26T00:34:03.423Z,64.84
2023-01-26T00:36:31.719Z,64.81
2023-01-26T00:39:02.191Z,64.72
2023-01-26T00:41:48.089Z,64.18
2023-01-26T00:44:17.058Z,64.31
2023-01-26T00:46:45.322Z,64.46
2023-01-26T00:49:15.024Z,64.35
2023-01-26T00:51:43.282Z,64.15
2023-01-26T00:54:11.621Z,64.40
2023-01-26T00:56:40.531Z,64.45
2023-01-26T00:59:08.945Z,64.53
2023-01-26T01:01:38.175Z,64.45
2023-01-26T01:04:07.924Z,64.40
2023-01-26T01:06:37.884Z,64.27
2023-01-26T01:09:06.150Z,64.28
2023-01-26T01:11:34.558Z,64.48
2023-01-26T01:14:02.940Z,64.24
2023-01-26T01:16:31.273Z,64.44
2023-01-26T01:18:59.545Z,64.63
2023-01-26T01:21:28.142Z,64.14
2023-01-26T01:23:57.861Z,64.40
2023-01-26T01:26:27.029Z,64.52
2023-01-26T01:28:56.154Z,64.77
2023-01-26T01:31:25.022Z,65.56
2023-01-26T01:33:54.271Z,64.92
2023-01-26T01:36:22.830Z,64.11
2023-01-26T01:38:53.293Z,64.14
2023-01-26T01:41:23.965Z,63.59
2023-01-26T01:44:12.276Z,63.31
2023-01-26T01:46:44.631Z,62.98
2023-01-26T01:49:18.877Z,62.44
2023-01-26T01:51:52.339Z,62.42
2023-01-26T01:54:27.704Z,62.63
2023-01-26T01:57:00.946Z,62.57
2023-01-26T01:59:30.166Z,62.44
2023-01-26T02:01:58.696Z,62.62
2023-01-26T02:04:28.413Z,62.64
2023-01-26T02:06:59.750Z,62.60
2023-01-26T02:09:50.066Z,62.80
2023-01-26T02:12:23.484Z,62.70
2023-01-26T02:14:54.202Z,62.62
2023-01-26T02:17:23.087Z,62.91
2023-01-26T02:20:01.630Z,62.57
2023-01-26T02:22:37.829Z,62.33
2023-01-26T02:25:14.006Z,62.53
2023-01-26T02:27:44.376Z,62.76
2023-01-26T02:30:15.079Z,62.55
2023-01-26T02:32:44.402Z,62.53
2023-01-26T02:35:12.680Z,62.50
2023-01-26T02:37:41.097Z,62.45
2023-01-26T02:40:17.559Z,62.26
2023-01-26T02:42:47.270Z,62.34
2023-01-26T02:45:17.982Z,62.44
2023-01-26T02:47:47.721Z,62.44
2023-01-26T02:50:15.757Z,62.24
2023-01-26T02:52:45.573Z,62.16
2023-01-26T02:55:28.850Z,62.36
2023-01-26T02:58:00.562Z,62.23
2023-01-26T03:00:32.547Z,62.33
2023-01-26T03:03:02.762Z,62.26
2023-01-26T03:05:32.357Z,62.20
2023-01-26T03:08:01.231Z,62.36
2023-01-26T03:10:36.426Z,62.28
2023-01-26T03:13:06.428Z,62.22
2023-01-26T03:15:51.586Z,62.24
2023-01-26T03:18:40.226Z,62.43
2023-01-26T03:21:29.959Z,62.56
2023-01-26T03:24:15.987Z,62.39
2023-01-26T03:27:02.419Z,62.53
2023-01-26T03:29:33.222Z,62.31
2023-01-26T03:32:02.738Z,62.28
2023-01-26T03:34:31.801Z,62.22
2023-01-26T03:37:00.922Z,62.25
2023-01-26T03:39:53.932Z,62.24
2023-01-26T03:42:39.980Z,62.34
2023-01-26T03:45:28.090Z,62.19
2023-01-26T03:48:22.529Z,62.02
2023-01-26T03:51:08.345Z,62.34
2023-01-26T03:53:54.390Z,62.29
2023-01-26T03:56:23.281Z,62.32
2023-01-26T03:58:55.519Z,62.21
2023-01-26T04:01:28.797Z,62.17
2023-01-26T04:04:17.445Z,62.58
2023-01-26T04:07:07.343Z,62.48
2023-01-26T04:09:39.538Z,62.45
2023-01-26T04:12:10.451Z,62.44
2023-01-26T04:15:03.774Z,62.46
2023-01-26T04:17:51.581Z,62.46
2023-01-26T04:20:37.418Z,62.34
2023-01-26T04:23:05.766Z,62.45
2023-01-26T04:25:34.522Z,62.37
2023-01-26T04:28:03.003Z,62.46
2023-01-26T04:30:31.434Z,62.47
2023-01-26T04:33:01.716Z,62.37
2023-01-26T04:35:30.544Z,62.13
2023-01-26T04:37:59.104Z,62.23
2023-01-26T04:40:28.234Z,62.37
2023-01-26T04:42:56.617Z,62.21
2023-01-26T04:45:25.039Z,62.35
2023-01-26T04:47:54.256Z,62.41
2023-01-26T04:50:23.992Z,62.25
2023-01-26T04:52:52.418Z,62.21
2023-01-26T04:55:21.310Z,62.15
2023-01-26T04:57:49.684Z,62.23
2023-01-26T05:00:18.494Z,62.27
2023-01-26T05:02:46.783Z,62.27
2023-01-26T05:05:15.804Z,62.28
2023-01-26T05:07:45.944Z,62.30
2023-01-26T05:10:15.965Z,62.56
2023-01-26T05:13:18.436Z,62.42
2023-01-26T05:16:16.205Z,62.41
2023-01-26T05:19:07.280Z,62.35
2023-01-26T05:21:58.413Z,62.33
2023-01-26T05:24:28.484Z,62.41
2023-01-26T05:27:16.122Z,62.32
2023-01-26T05:29:45.752Z,62.19
2023-01-26T05:32:14.594Z,62.17
2023-01-26T05:34:43.239Z,62.20
2023-01-26T05:37:14.534Z,62.14
2023-01-26T05:39:46.833Z,62.18
2023-01-26T05:42:15.437Z,62.37
2023-01-26T05:45:02.032Z,62.44
2023-01-26T05:47:31.267Z,62.27
2023-01-26T05:49:59.579Z,62.24
2023-01-26T05:52:31.483Z,62.24
2023-01-26T05:55:01.580Z,62.24
2023-01-26T05:57:29.946Z,62.22
2023-01-26T06:00:02.007Z,62.07
2023-01-26T06:02:31.525Z,62.13
2023-01-26T06:04:59.893Z,62.17
2023-01-26T06:07:28.155Z,62.18
2023-01-26T06:10:11.167Z,62.05
2023-01-26T06:12:49.168Z,62.09
2023-01-26T06:15:34.543Z,62.12
2023-01-26T06:18:02.907Z,62.03
2023-01-26T06:20:31.278Z,62.09
2023-01-26T06:23:02.220Z,61.99
2023-01-26T06:25:34.651Z,62.11
2023-01-26T06:28:04.069Z,62.07
2023-01-26T06:30:33.104Z,62.15
2023-01-26T06:33:04.088Z,62.11
2023-01-26T06:35:37.183Z,62.06
2023-01-26T06:38:08.386Z,62.02
2023-01-26T06:40:38.126Z,62.09
2023-01-26T06:43:06.863Z,62.02
2023-01-26T06:45:35.436Z,61.99
2023-01-26T06:48:03.803Z,61.97
2023-01-26T06:50:34.165Z,61.86
2023-01-26T06:53:05.551Z,61.93
2023-01-26T06:55:53.342Z,61.89
2023-01-26T06:58:36.399Z,61.92
2023-01-26T07:01:40.577Z,61.92
2023-01-26T07:04:09.116Z,61.96
2023-01-26T07:06:37.412Z,61.83
2023-01-26T07:09:06.108Z,61.88
2023-01-26T07:11:35.731Z,61.91
2023-01-26T07:14:04.090Z,61.92
2023-01-26T07:16:33.829Z,61.84
2023-01-26T07:19:02.416Z,61.83
2023-01-26T07:21:30.741Z,61.87
2023-01-26T07:23:58.956Z,61.73
2023-01-26T07:26:27.322Z,61.55
2023-01-26T07:28:56.989Z,61.51
2023-01-26T07:31:25.276Z,61.64
2023-01-26T07:33:53.886Z,61.64
2023-01-26T07:36:22.123Z,61.60
2023-01-26T07:38:50.469Z,61.49
2023-01-26T07:41:18.776Z,61.44
2023-01-26T07:43:47.110Z,61.43
2023-01-26T07:46:16.784Z,61.34
2023-01-26T07:48:45.064Z,61.21
2023-01-26T07:51:13.763Z,61.17
2023-01-26T07:53:43.602Z,61.03
2023-01-26T07:56:13.693Z,61.09
2023-01-26T07:58:42.253Z,61.02
2023-01-26T08:01:12.375Z,60.91
2023-01-26T08:03:42.786Z,61.05
2023-01-26T08:06:12.987Z,61.14
2023-01-26T08:08:43.818Z,61.12
2023-01-26T08:11:13.516Z,61.10
2023-01-26T08:13:41.829Z,61.05
2023-01-26T08:16:12.789Z,60.92
2023-01-26T08:18:44.024Z,60.77
2023-01-26T08:21:13.661Z,60.86
2023-01-26T08:23:42.154Z,60.86
2023-01-26T08:26:13.104Z,60.81
2023-01-26T08:28:42.007Z,60.76
2023-01-26T08:31:12.982Z,60.67
2023-01-26T08:33:43.734Z,60.67
2023-01-26T08:36:13.734Z,60.68
2023-01-26T08:38:42.571Z,60.63
2023-01-26T08:41:11.432Z,60.56
2023-01-26T08:43:39.841Z,60.47
2023-01-26T08:46:08.248Z,60.44
2023-01-26T08:48:37.539Z,60.39
2023-01-26T08:51:08.583Z,60.33
2023-01-26T08:53:38.208Z,60.54
2023-01-26T08:56:08.887Z,60.55
2023-01-26T08:58:37.625Z,60.48
2023-01-26T09:01:06.647Z,60.44
2023-01-26T09:03:35.001Z,60.33
2023-01-26T09:06:04.443Z,60.34
2023-01-26T09:08:34.232Z,60.31
2023-01-26T09:11:02.719Z,60.48
2023-01-26T09:13:34.019Z,60.56
2023-01-26T09:16:05.176Z,61.38
2023-01-26T09:18:33.738Z,64.17
2023-01-26T09:21:05.919Z,65.51
2023-01-26T09:23:36.359Z,66.22
2023-01-26T09:26:04.830Z,65.81
2023-01-26T09:28:33.111Z,62.83
2023-01-26T09:31:05.187Z,61.15
2023-01-26T09:33:33.675Z,60.31
2023-01-26T09:36:05.776Z,60.00
2023-01-26T09:38:35.577Z,61.78
2023-01-26T09:41:08.640Z,61.79
2023-01-26T09:43:41.705Z,61.54
2023-01-26T09:46:23.003Z,61.54
2023-01-26T09:49:01.420Z,61.07
2023-01-26T09:51:36.058Z,59.42
2023-01-26T09:54:16.089Z,58.84
2023-01-26T09:56:44.457Z,57.76
2023-01-26T09:59:22.107Z,55.58
2023-01-26T10:01:55.310Z,55.04
2023-01-26T10:04:33.666Z,54.84
2023-01-26T10:07:04.121Z,54.09
2023-01-26T10:09:51.724Z,52.98
2023-01-26T10:12:24.167Z,53.91
2023-01-26T10:14:57.634Z,50.45
2023-01-26T10:17:32.059Z,50.81
2023-01-26T10:20:06.752Z,50.39
2023-01-26T10:22:43.902Z,49.54
2023-01-26T10:25:17.687Z,48.36
2023-01-26T10:27:46.294Z,49.33
2023-01-26T10:30:15.637Z,47.80
2023-01-26T10:32:46.285Z,48.12
2023-01-26T10:35:18.601Z,46.06
2023-01-26T10:37:47.335Z,45.01
2023-01-26T10:40:17.796Z,46.38
2023-01-26T10:42:57.557Z,45.34
2023-01-26T10:45:28.673Z,44.39
2023-01-26T10:48:15.317Z,43.81
2023-01-26T10:50:43.702Z,43.96
2023-01-26T10:53:17.595Z,42.62
2023-01-26T10:56:01.108Z,42.71
2023-01-26T10:58:48.028Z,42.42
2023-01-26T11:01:18.962Z,40.64
2023-01-26T11:04:03.227Z,39.10
2023-01-26T11:06:32.559Z,39.36
2023-01-26T11:09:12.645Z,39.75
2023-01-26T11:11:43.045Z,38.36
2023-01-26T11:14:13.941Z,37.90
2023-01-26T11:16:46.616Z,38.71
2023-01-26T11:19:20.168Z,39.52
2023-01-26T11:21:54.431Z,38.34
2023-01-26T11:24:28.039Z,37.50
2023-01-26T11:27:19.285Z,38.38
2023-01-26T11:30:25.747Z,39.02
2023-01-26T11:33:00.471Z,37.89
2023-01-26T11:35:38.722Z,35.79
2023-01-26T11:38:23.490Z,37.69
2023-01-26T11:41:01.413Z,39.04
2023-01-26T11:43:54.870Z,38.81
2023-01-26T11:46:43.983Z,39.49
2023-01-26T11:49:27.555Z,39.62
2023-01-26T11:52:08.707Z,40.15
2023-01-26T11:54:56.538Z,41.73
2023-01-26T11:57:31.278Z,45.93
2023-01-26T12:00:05.486Z,43.04
2023-01-26T12:02:43.253Z,39.78
2023-01-26T12:05:17.966Z,41.01
2023-01-26T12:07:55.658Z,40.52
2023-01-26T12:10:28.931Z,40.39
2023-01-26T12:13:04.377Z,39.95
2023-01-26T12:15:35.978Z,40.71
2023-01-26T12:18:15.527Z,40.51
2023-01-26T12:20:47.285Z,38.43
2023-01-26T12:23:26.083Z,37.78
2023-01-26T12:25:58.179Z,36.34
2023-01-26T12:28:32.281Z,35.30
2023-01-26T12:31:09.205Z,35.94
2023-01-26T12:33:38.714Z,36.91
2023-01-26T12:36:29.131Z,37.83
2023-01-26T12:39:08.113Z,38.72
2023-01-26T12:41:54.079Z,39.83
2023-01-26T12:44:33.561Z,41.11
2023-01-26T12:47:10.753Z,41.87
2023-01-26T12:49:44.456Z,45.09
2023-01-26T12:52:18.549Z,42.58
2023-01-26T12:54:51.686Z,41.65
2023-01-26T12:57:22.993Z,41.43
2023-01-26T12:59:52.349Z,41.87
2023-01-26T13:02:28.679Z,42.16
2023-01-26T13:04:58.804Z,43.93
2023-01-26T13:07:29.698Z,45.00
2023-01-26T13:10:21.965Z,41.43
2023-01-26T13:12:51.590Z,37.89
2023-01-26T13:15:21.610Z,36.48
2023-01-26T13:17:53.862Z,36.45
2023-01-26T13:20:45.067Z,38.06
2023-01-26T13:23:39.278Z,39.88
2023-01-26T13:26:32.703Z,41.34
2023-01-26T13:29:31.842Z,44.03
2023-01-26T13:32:18.071Z,45.61
2023-01-26T13:34:53.673Z,46.68
2023-01-26T13:37:29.103Z,47.05
2023-01-26T13:40:01.430Z,47.50
2023-01-26T13:42:39.042Z,47.16
2023-01-26T13:45:18.310Z,47.90
2023-01-26T13:47:50.271Z,48.13
2023-01-26T13:50:31.378Z,48.06
2023-01-26T13:53:00.283Z,48.57
2023-01-26T13:55:31.732Z,48.82
2023-01-26T13:58:12.250Z,48.80
2023-01-26T14:00:40.384Z,49.09
2023-01-26T14:03:22.078Z,48.85
2023-01-26T14:05:58.673Z,48.91
2023-01-26T14:08:27.142Z,48.93
2023-01-26T14:10:55.451Z,48.38
2023-01-26T14:13:29.535Z,48.45
2023-01-26T14:16:00.527Z,47.71
2023-01-26T14:18:28.850Z,47.18
2023-01-26T14:21:05.090Z,46.55
2023-01-26T14:23:35.982Z,45.57
2023-01-26T14:26:06.598Z,45.90
2023-01-26T14:28:36.964Z,45.52
2023-01-26T14:31:10.341Z,45.58
2023-01-26T14:33:38.676Z,45.77
2023-01-26T14:36:15.101Z,45.80
2023-01-26T14:38:45.391Z,45.70
2023-01-26T14:41:19.894Z,45.76
2023-01-26T14:43:50.047Z,45.71
2023-01-26T14:46:24.530Z,45.78
2023-01-26T14:48:57.776Z,46.30
2023-01-26T14:51:28.859Z,46.41
2023-01-26T14:53:59.684Z,46.53
2023-01-26T14:56:36.819Z,46.84
2023-01-26T14:59:05.728Z,46.83
2023-01-26T15:01:34.614Z,47.13
2023-01-26T15:04:04.894Z,47.47
2023-01-26T15:06:34.674Z,47.96
2023-01-26T15:09:05.990Z,47.61
2023-01-26T15:11:53.919Z,47.79
2023-01-26T15:14:33.435Z,47.33
2023-01-26T15:17:01.625Z,47.65
2023-01-26T15:19:34.047Z,47.24
2023-01-26T15:22:03.443Z,47.16
2023-01-26T15:24:31.585Z,46.88
2023-01-26T15:27:06.645Z,47.44
2023-01-26T15:29:36.037Z,47.36
2023-01-26T15:32:04.134Z,47.92
2023-01-26T15:34:36.737Z,47.67
2023-01-26T15:37:28.828Z,47.99
2023-01-26T15:39:56.905Z,48.12
2023-01-26T15:42:28.095Z,47.86
2023-01-26T15:44:56.276Z,48.84
2023-01-26T15:47:24.635Z,49.47
2023-01-26T15:49:52.811Z,49.98
2023-01-26T15:52:25.821Z,50.30
2023-01-26T15:54:54.089Z,50.58
2023-01-26T15:57:22.268Z,50.50
2023-01-26T15:59:50.286Z,50.47
2023-01-26T16:02:20.200Z,50.91
2023-01-26T16:04:48.557Z,51.17
2023-01-26T16:07:19.145Z,51.12
2023-01-26T16:09:49.119Z,51.10
2023-01-26T16:12:31.222Z,51.51
2023-01-26T16:15:00.186Z,51.85
2023-01-26T16:17:28.368Z,52.00
2023-01-26T16:19:56.436Z,51.99
2023-01-26T16:22:24.568Z,51.91
2023-01-26T16:24:53.952Z,52.17
2023-01-26T16:27:22.662Z,51.35
2023-01-26T16:29:50.773Z,50.98
2023-01-26T16:32:27.470Z,50.83
2023-01-26T16:34:55.531Z,51.95
2023-01-26T16:37:23.549Z,52.46
2023-01-26T16:39:52.929Z,52.75
2023-01-26T16:42:22.429Z,52.07
2023-01-26T16:44:50.632Z,51.61
2023-01-26T16:47:18.705Z,51.54
2023-01-26T16:49:47.489Z,51.57
2023-01-26T16:52:15.539Z,52.19
2023-01-26T16:54:45.602Z,51.89
2023-01-26T16:57:15.218Z,52.76
2023-01-26T16:59:43.286Z,53.39
2023-01-26T17:02:23.460Z,53.16
2023-01-26T17:04:51.515Z,53.44
2023-01-26T17:07:19.739Z,53.38
2023-01-26T17:09:47.794Z,53.50
2023-01-26T17:12:17.306Z,53.34
2023-01-26T17:14:45.420Z,53.29
2023-01-26T17:17:13.558Z,53.43
2023-01-26T17:19:41.585Z,53.67
2023-01-26T17:22:09.606Z,53.89
2023-01-26T17:24:37.651Z,53.89
2023-01-26T17:27:05.859Z,54.10
2023-01-26T17:29:35.340Z,54.50
2023-01-26T17:32:03.569Z,54.51
2023-01-26T17:34:31.617Z,54.89
2023-01-26T17:37:00.465Z,54.91
2023-01-26T17:39:28.685Z,54.81
2023-01-26T17:41:56.713Z,54.62
2023-01-26T17:44:24.778Z,54.37
2023-01-26T17:46:54.122Z,54.32
2023-01-26T17:49:22.526Z,54.25
2023-01-26T17:51:50.527Z,54.23
2023-01-26T17:54:19.471Z,54.38
2023-01-26T17:56:47.483Z,54.67
2023-01-26T17:59:15.552Z,54.77
2023-01-26T18:01:43.563Z,54.91
2023-01-26T18:04:13.005Z,54.78
2023-01-26T18:06:41.036Z,54.98
2023-01-26T18:09:09.173Z,55.16
2023-01-26T18:11:37.393Z,55.44
2023-01-26T18:14:05.482Z,54.74
2023-01-26T18:16:33.749Z,55.03
2023-01-26T18:19:04.374Z,54.22
2023-01-26T18:21:34.870Z,54.42
2023-01-26T18:24:04.326Z,55.62
2023-01-26T18:26:34.643Z,56.26
2023-01-26T18:29:03.264Z,56.49
2023-01-26T18:31:33.491Z,56.39
2023-01-26T18:34:02.983Z,56.32
2023-01-26T18:36:31.480Z,56.96
2023-01-26T18:39:03.009Z,57.07
2023-01-26T18:41:31.655Z,57.75
2023-01-26T18:44:00.473Z,57.83
2023-01-26T18:46:30.862Z,57.99
2023-01-26T18:49:00.865Z,58.03
2023-01-26T18:51:29.729Z,58.03
2023-01-26T18:53:58.440Z,58.24
2023-01-26T18:56:28.307Z,58.35
2023-01-26T18:58:56.478Z,58.29
2023-01-26T19:01:25.921Z,58.36
2023-01-26T19:03:55.797Z,58.41
2023-01-26T19:06:26.136Z,58.38
2023-01-26T19:08:58.831Z,58.90
2023-01-26T19:11:30.709Z,57.58
2023-01-26T19:13:59.426Z,57.55
2023-01-26T19:16:28.938Z,58.51
2023-01-26T19:18:57.481Z,58.77
2023-01-26T19:21:27.570Z,58.62
2023-01-26T19:23:58.529Z,58.75
2023-01-26T19:26:29.790Z,58.84
2023-01-26T19:28:58.353Z,59.06
2023-01-26T19:31:27.633Z,59.37
2023-01-26T19:33:57.427Z,59.62
2023-01-26T19:36:26.291Z,59.80
2023-01-26T19:38:54.408Z,59.78
2023-01-26T19:41:23.814Z,59.56
2023-01-26T19:43:53.301Z,59.48
2023-01-26T19:46:21.935Z,59.45
2023-01-26T19:48:50.273Z,59.48
2023-01-26T19:51:19.790Z,59.51
2023-01-26T19:53:49.766Z,59.47
2023-01-26T19:56:19.791Z,59.56
2023-01-26T19:58:51.182Z,59.16
2023-01-26T20:01:22.124Z,59.49
2023-01-26T20:03:51.814Z,59.58
2023-01-26T20:06:21.908Z,59.66
2023-01-26T20:08:50.050Z,59.64
2023-01-26T20:11:19.819Z,59.62
2023-01-26T20:13:47.847Z,59.62
2023-01-26T20:16:15.975Z,59.61
2023-01-26T20:18:45.443Z,59.93
2023-01-26T20:21:13.511Z,60.19
2023-01-26T20:23:53.681Z,60.33
2023-01-26T20:26:23.134Z,60.47
2023-01-26T20:28:51.787Z,60.65
2023-01-26T20:31:21.886Z,60.80
2023-01-26T20:33:53.378Z,60.82
2023-01-26T20:36:24.189Z,60.81
2023-01-26T20:38:52.394Z,60.89
2023-01-26T20:41:22.963Z,60.87
2023-01-26T20:43:59.671Z,60.99
2023-01-26T20:46:30.572Z,60.87
2023-01-26T20:49:00.319Z,60.57
2023-01-26T20:51:30.857Z,60.47
2023-01-26T20:53:59.340Z,60.82
2023-01-26T20:56:27.853Z,60.85
2023-01-26T20:58:56.922Z,60.33
2023-01-26T21:01:25.951Z,59.28
2023-01-26T21:03:54.690Z,59.06
2023-01-26T21:06:26.162Z,58.93
2023-01-26T21:08:56.813Z,59.01
2023-01-26T21:11:27.000Z,59.63
2023-01-26T21:13:56.507Z,59.78
2023-01-26T21:16:25.211Z,59.93
2023-01-26T21:18:53.328Z,59.89
2023-01-26T21:21:23.479Z,59.77
2023-01-26T21:23:52.013Z,59.76
2023-01-26T21:26:22.476Z,59.82
2023-01-26T21:28:52.210Z,59.57
2023-01-26T21:31:21.998Z,59.36
2023-01-26T21:33:50.743Z,59.51
2023-01-26T21:36:21.086Z,59.32
2023-01-26T21:38:52.535Z,59.04
2023-01-26T21:41:39.574Z,59.16
2023-01-26T21:44:09.504Z,59.21
2023-01-26T21:46:37.587Z,58.94
2023-01-26T21:49:06.857Z,59.06
2023-01-26T21:51:52.631Z,58.90
2023-01-26T21:54:22.238Z,58.79
2023-01-26T21:56:50.319Z,58.76
2023-01-26T21:59:18.218Z,58.58
2023-01-26T22:01:47.688Z,58.19
2023-01-26T22:04:18.928Z,58.32
2023-01-26T22:06:47.014Z,58.35
2023-01-26T22:09:17.211Z,58.16
2023-01-26T22:11:46.928Z,58.19
2023-01-26T22:14:16.717Z,58.23
2023-01-26T22:16:45.168Z,58.14
2023-01-26T22:19:13.978Z,58.08
2023-01-26T22:21:42.177Z,58.04
2023-01-26T22:24:12.234Z,58.03
2023-01-26T22:26:40.921Z,57.74
2023-01-26T22:29:12.681Z,57.87
2023-01-26T22:31:41.856Z,57.80
2023-01-26T22:34:11.665Z,57.71
2023-01-26T22:36:40.215Z,57.89
2023-01-26T22:39:08.440Z,57.87
2023-01-26T22:41:37.665Z,57.88
2023-01-26T22:44:05.971Z,57.93
2023-01-26T22:46:36.811Z,58.13
2023-01-26T22:49:05.955Z,58.10
2023-01-26T22:51:37.443Z,58.03
2023-01-26T22:54:06.432Z,57.94
2023-01-26T22:56:34.637Z,57.81
2023-01-26T22:59:02.767Z,57.84
2023-01-26T23:01:32.948Z,57.69
2023-01-26T23:04:02.795Z,57.93
2023-01-26T23:06:31.207Z,57.87
2023-01-26T23:09:01.102Z,57.79
2023-01-26T23:11:30.493Z,57.86
2023-01-26T23:14:00.571Z,57.90
2023-01-26T23:16:29.435Z,57.83
2023-01-26T23:18:59.093Z,57.63
2023-01-26T23:21:29.789Z,57.52
2023-01-26T23:23:58.062Z,57.67
2023-01-26T23:26:26.147Z,57.55
2023-01-26T23:28:54.214Z,57.48
2023-01-26T23:31:22.452Z,57.45
2023-01-26T23:33:50.587Z,57.43
2023-01-26T23:36:18.619Z,57.34
2023-01-26T23:38:48.133Z,57.22
2023-01-26T23:41:16.551Z,57.07
2023-01-26T23:43:44.539Z,57.16
2023-01-26T23:46:13.158Z,56.78
2023-01-26T23:48:41.662Z,56.76
2023-01-26T23:51:11.781Z,56.76
2023-01-26T23:53:39.913Z,56.92
2023-01-26T23:56:17.287Z,56.61
2023-01-26T23:58:45.796Z,56.68
